Time;durP1;ratioP1;P1;durP2;ratioP2;P2;SDS_P1;SDS_P2;PMS_P1;PMS_P2;Temp;Humidity;BMP_temperature;BMP_pressure;BME280_temperature;BME280_humidity;BME280_pressure;Samples;Min_cycle;Max_cycle;Signal;HPM_P1;HPM_P2
2022/04/19 00:00:11;;;;;;;;;;;;;;;13.76;50.71;100785.06;4426557;32;19957;-70
2022/04/19 00:02:37;;;;;;;;;;;;;;;13.84;50.57;100779.94;4423536;32;20310;-70
2022/04/19 00:05:02;;;;;;;;;;;;;;;13.90;50.41;100784.53;4416587;32;20279;-70
2022/04/19 00:07:28;;;;;;;;;;;;;;;13.91;50.47;100796.66;4416851;32;19953;-70
2022/04/19 00:09:54;;;;;;;;;;;;;;;13.98;50.27;100790.72;4421409;32;19954;-70
2022/04/19 00:12:22;;;;;;;;;;;;;;;13.92;50.30;100787.69;4411407;32;20437;-70
2022/04/19 00:14:48;;;;;;;;;;;;;;;13.96;50.56;100787.56;4411546;32;19946;-70
2022/04/19 00:17:13;;;;;;;;;;;;;;;13.92;50.61;100787.69;4421611;32;19975;-70
2022/04/19 00:19:39;;;;;;;;;;;;;;;13.85;50.65;100785.13;4411676;32;20028;-70
2022/04/19 00:22:05;;;;;;;;;;;;;;;13.87;50.55;100776.19;4424044;32;19945;-71
2022/04/19 00:24:31;;;;;;;;;;;;;;;13.77;51.02;100780.19;4414375;32;19972;-70
2022/04/19 00:26:56;;;;;;;;;;;;;;;13.82;50.81;100786.06;4422831;32;19962;-70
2022/04/19 00:29:22;;;;;;;;;;;;;;;13.84;50.93;100782.78;4416105;32;19954;-70
2022/04/19 00:31:47;;;;;;;;;;;;;;;13.88;51.61;100778.56;4418965;32;20372;-70
2022/04/19 00:34:15;;;;;;;;;;;;;;;13.94;51.67;100782.34;4426239;32;19957;-70
2022/04/19 00:36:41;;;;;;;;;;;;;;;13.94;51.50;100781.59;4429596;32;19967;-70
2022/04/19 00:39:07;;;;;;;;;;;;;;;13.99;51.48;100778.94;4417954;32;19965;-70
2022/04/19 00:41:32;;;;;;;;;;;;;;;13.84;52.00;100780.72;4424978;32;19957;-70
2022/04/19 00:43:58;;;;;;;;;;;;;;;13.91;51.66;100779.66;4417430;32;19954;-70
2022/04/19 00:46:24;;;;;;;;;;;;;;;13.93;51.42;100785.66;4427840;32;19965;-70
2022/04/19 00:48:52;;;;;;;;;;;;;;;13.95;51.35;100781.12;4422311;32;20330;-70
2022/04/19 00:51:18;;;;;;;;;;;;;;;13.97;50.99;100786.31;4427203;32;19990;-70
2022/04/19 00:53:45;;;;;;;;;;;;;;;13.99;50.87;100784.59;4430025;32;20325;-70
2022/04/19 00:56:11;;;;;;;;;;;;;;;14.04;51.05;100786.84;4417955;32;20347;-71
2022/04/19 00:58:37;;;;;;;;;;;;;;;14.11;50.89;100782.94;4417346;32;19958;-70
2022/04/19 01:01:03;;;;;;;;;;;;;;;14.12;51.22;100778.09;4425447;32;20358;-70
2022/04/19 01:03:28;;;;;;;;;;;;;;;13.92;51.07;100775.59;4421679;32;19969;-70
2022/04/19 01:05:55;;;;;;;;;;;;;;;13.99;50.66;100778.94;4419380;32;19946;-70
2022/04/19 01:08:22;;;;;;;;;;;;;;;13.90;50.95;100776.03;4417881;32;19999;-70
2022/04/19 01:10:48;;;;;;;;;;;;;;;13.75;51.37;100772.16;4414994;32;20378;-70
2022/04/19 01:13:18;;;;;;;;;;;;;;;13.73;51.32;100779.53;4415770;32;19973;-70
2022/04/19 01:15:45;;;;;;;;;;;;;;;13.88;51.02;100772.09;4427280;32;19997;-70
2022/04/19 01:18:11;;;;;;;;;;;;;;;13.65;51.52;100766.88;4423245;32;20349;-70
2022/04/19 01:20:38;;;;;;;;;;;;;;;13.57;52.12;100768.41;4419720;32;19953;-70
2022/04/19 01:23:04;;;;;;;;;;;;;;;13.58;52.94;100767.16;4427039;32;19972;-70
2022/04/19 01:25:29;;;;;;;;;;;;;;;13.61;52.92;100771.88;4422203;32;19985;-70
2022/04/19 01:27:55;;;;;;;;;;;;;;;13.42;53.44;100772.97;4425388;32;19968;-70
2022/04/19 01:30:20;;;;;;;;;;;;;;;13.24;53.45;100776.44;4429527;32;19964;-70
2022/04/19 01:32:46;;;;;;;;;;;;;;;13.15;53.97;100762.19;4427276;32;19954;-70
2022/04/19 01:37:48;;;;;;;;;;;;;;;12.96;54.66;100766.06;3961111;32;15773373;-70
2022/04/19 01:40:17;;;;;;;;;;;;;;;12.78;55.10;100763.03;4430357;32;20422;-70
2022/04/19 01:45:23;;;;;;;;;;;;;;;12.90;55.19;100782.00;3958380;32;15727362;-71
2022/04/19 01:47:49;;;;;;;;;;;;;;;12.90;55.19;100782.00;4444335;32;20398;-71
2022/04/19 01:50:15;;;;;;;;;;;;;;;12.32;55.98;100777.81;4438885;32;19963;-71
2022/04/19 01:52:43;;;;;;;;;;;;;;;12.21;56.37;100771.66;4440080;32;20014;-71
2022/04/19 01:55:10;;;;;;;;;;;;;;;12.08;56.68;100773.69;4438516;32;20373;-70
2022/04/19 01:57:36;;;;;;;;;;;;;;;12.11;56.67;100761.50;4444819;32;19968;-71
2022/04/19 02:00:03;;;;;;;;;;;;;;;12.05;56.97;100766.91;4446193;32;20401;-71
2022/04/19 02:02:29;;;;;;;;;;;;;;;11.99;57.48;100765.87;4440929;32;19954;-71
2022/04/19 02:04:55;;;;;;;;;;;;;;;11.81;58.03;100759.16;4435287;32;20020;-71
2022/04/19 02:07:20;;;;;;;;;;;;;;;11.71;58.31;100763.88;4443732;32;19961;-71
2022/04/19 02:09:47;;;;;;;;;;;;;;;11.65;58.72;100760.03;4442266;32;19949;-71
2022/04/19 02:12:13;;;;;;;;;;;;;;;11.50;58.83;100756.00;4442590;32;19997;-70
2022/04/19 02:14:41;;;;;;;;;;;;;;;11.38;58.94;100765.19;4428243;32;19953;-70
2022/04/19 02:17:09;;;;;;;;;;;;;;;11.45;58.97;100764.97;4436550;32;19953;-71
2022/04/19 02:19:36;;;;;;;;;;;;;;;11.53;58.74;100765.56;4442502;32;19961;-71
2022/04/19 02:22:03;;;;;;;;;;;;;;;11.44;59.14;100768.25;4441646;32;20421;-70
2022/04/19 02:24:29;;;;;;;;;;;;;;;11.32;59.47;100772.59;4441208;32;20104;-70
2022/04/19 02:26:54;;;;;;;;;;;;;;;11.28;59.57;100766.25;4438476;32;19958;-70
2022/04/19 02:29:21;;;;;;;;;;;;;;;11.29;59.47;100767.81;4428811;32;19953;-70
2022/04/19 02:31:47;;;;;;;;;;;;;;;11.24;60.00;100768.38;4443231;32;20651;-70
2022/04/19 02:34:18;;;;;;;;;;;;;;;11.16;60.14;100758.53;4443706;32;19988;-70
2022/04/19 02:36:43;;;;;;;;;;;;;;;10.89;61.06;100760.06;4442573;32;20385;-70
2022/04/19 02:39:09;;;;;;;;;;;;;;;10.94;60.93;100759.50;4442102;32;19968;-70
2022/04/19 02:41:34;;;;;;;;;;;;;;;10.97;60.85;100764.25;4441625;32;20186;-70
2022/04/19 02:44:00;;;;;;;;;;;;;;;10.87;60.79;100768.13;4436926;32;19995;-70
2022/04/19 02:46:26;;;;;;;;;;;;;;;10.73;61.32;100760.84;4427407;32;20009;-70
2022/04/19 02:48:51;;;;;;;;;;;;;;;10.67;61.80;100762.59;4437330;32;20300;-70
2022/04/19 02:51:18;;;;;;;;;;;;;;;10.72;62.13;100766.91;4443210;32;19949;-70
2022/04/19 02:53:44;;;;;;;;;;;;;;;10.66;62.04;100779.91;4433654;32;20306;-70
2022/04/19 02:56:10;;;;;;;;;;;;;;;10.68;62.02;100769.00;4433093;32;19961;-70
2022/04/19 02:58:35;;;;;;;;;;;;;;;10.62;62.31;100765.13;4428673;32;19989;-70
2022/04/19 03:01:02;;;;;;;;;;;;;;;10.98;61.54;100777.13;4431393;32;20354;-70
2022/04/19 03:03:29;;;;;;;;;;;;;;;11.23;60.59;100786.50;4431346;32;19992;-70
2022/04/19 03:05:57;;;;;;;;;;;;;;;10.73;62.19;100788.19;4422590;32;19997;-70
2022/04/19 03:08:24;;;;;;;;;;;;;;;10.65;62.27;100779.09;4431118;32;19985;-70
2022/04/19 03:10:51;;;;;;;;;;;;;;;10.59;62.57;100777.28;4430488;32;20005;-70
2022/04/19 03:13:17;;;;;;;;;;;;;;;10.46;63.23;100774.34;4424306;32;19949;-70
2022/04/19 03:15:42;;;;;;;;;;;;;;;10.42;63.53;100772.84;4416133;32;20004;-70
2022/04/19 03:18:08;;;;;;;;;;;;;;;10.43;63.47;100774.44;4427165;32;19952;-70
2022/04/19 03:20:33;;;;;;;;;;;;;;;10.32;63.99;100771.06;4429777;32;19957;-70
2022/04/19 03:28:31;;;;;;;;;;;;;;;10.17;63.83;100778.22;4428181;32;20492;-70
2022/04/19 03:30:56;;;;;;;;;;;;;;;10.14;63.69;100782.72;4430673;32;19953;-70
2022/04/19 03:33:22;;;;;;;;;;;;;;;10.14;63.84;100779.87;4428408;32;20016;-70
2022/04/19 03:35:48;;;;;;;;;;;;;;;10.06;64.26;100781.22;4425266;32;20315;-70
2022/04/19 03:38:14;;;;;;;;;;;;;;;9.93;65.05;100783.91;4430475;32;19977;-70
2022/04/19 03:40:39;;;;;;;;;;;;;;;9.95;64.65;100789.09;4421295;32;19961;-70
2022/04/19 03:43:06;;;;;;;;;;;;;;;9.89;64.67;100791.66;4427817;32;19961;-70
2022/04/19 03:45:33;;;;;;;;;;;;;;;9.87;64.56;100788.47;4414902;32;20250;-70
2022/04/19 03:48:00;;;;;;;;;;;;;;;9.88;63.95;100797.69;4423958;32;19957;-70
2022/04/19 03:50:26;;;;;;;;;;;;;;;9.86;63.44;100794.50;4426167;32;20338;-70
2022/04/19 03:52:51;;;;;;;;;;;;;;;9.78;63.84;100793.06;4415517;32;19961;-70
2022/04/19 03:55:17;;;;;;;;;;;;;;;9.68;64.36;100788.44;4424988;32;19968;-70
2022/04/19 03:57:43;;;;;;;;;;;;;;;9.64;64.40;100794.13;4429494;32;20058;-70
2022/04/19 04:00:10;;;;;;;;;;;;;;;9.64;64.03;100791.31;4428895;32;20319;-70
2022/04/19 04:02:35;;;;;;;;;;;;;;;9.57;63.99;100790.66;4425545;32;20394;-70
2022/04/19 04:05:03;;;;;;;;;;;;;;;9.58;63.92;100800.69;4430058;32;20013;-70
2022/04/19 04:07:30;;;;;;;;;;;;;;;9.50;64.38;100797.22;4425444;32;20324;-70
2022/04/19 04:09:58;;;;;;;;;;;;;;;9.57;64.15;100807.53;4415659;32;19961;-70
2022/04/19 04:12:24;;;;;;;;;;;;;;;9.56;64.18;100809.56;4428699;32;19960;-70
2022/04/19 04:14:49;;;;;;;;;;;;;;;9.51;64.57;100807.22;4412548;32;19958;-70
2022/04/19 04:17:18;;;;;;;;;;;;;;;9.35;65.40;100809.94;4422964;32;19961;-70
2022/04/19 04:19:43;;;;;;;;;;;;;;;9.36;65.52;100819.94;4427776;32;20213;-70
2022/04/19 04:22:09;;;;;;;;;;;;;;;9.37;65.67;100815.94;4426363;32;19965;-70
2022/04/19 04:24:34;;;;;;;;;;;;;;;9.34;65.72;100821.59;4429365;32;19979;-70
2022/04/19 04:26:59;;;;;;;;;;;;;;;9.31;65.82;100819.66;4428690;32;19946;-70
2022/04/19 04:29:25;;;;;;;;;;;;;;;9.28;65.85;100824.13;4429272;32;20013;-70
2022/04/19 04:31:51;;;;;;;;;;;;;;;9.27;65.78;100819.69;4421224;32;20022;-70
2022/04/19 04:34:16;;;;;;;;;;;;;;;9.26;66.05;100817.31;4430230;32;20002;-70
2022/04/19 04:36:41;;;;;;;;;;;;;;;9.23;66.29;100821.78;4429355;32;19997;-70
2022/04/19 04:39:07;;;;;;;;;;;;;;;9.30;65.79;100815.25;4428818;32;20003;-70
2022/04/19 04:41:33;;;;;;;;;;;;;;;9.29;65.43;100822.88;4427815;32;20041;-70
2022/04/19 04:43:59;;;;;;;;;;;;;;;9.22;65.18;100825.81;4425204;32;19987;-70
2022/04/19 04:49:40;;;;;;;;;;;;;;;9.50;64.68;100827.31;4423195;32;19989;-70
2022/04/19 04:51:55;;;;;;;;;;;;;;;9.71;63.56;100838.16;4416194;32;19949;-70
2022/04/19 04:54:20;;;;;;;;;;;;;;;9.64;63.76;100830.66;4429445;32;19996;-70
2022/04/19 04:56:46;;;;;;;;;;;;;;;9.52;63.98;100834.13;4429382;32;20407;-70
2022/04/19 04:59:11;;;;;;;;;;;;;;;9.29;64.61;100839.72;4429921;32;20390;-70
2022/04/19 05:01:37;;;;;;;;;;;;;;;9.46;64.16;100844.25;4429007;32;20604;-70
2022/04/19 05:04:03;;;;;;;;;;;;;;;9.44;64.22;100834.66;4431123;32;20007;-70
2022/04/19 05:06:29;;;;;;;;;;;;;;;9.39;64.24;100840.78;4430287;32;19976;-70
2022/04/19 05:08:54;;;;;;;;;;;;;;;9.35;63.91;100842.84;4428528;32;19953;-70
2022/04/19 05:11:20;;;;;;;;;;;;;;;9.37;63.94;100848.84;4428359;32;19949;-70
2022/04/19 05:13:45;;;;;;;;;;;;;;;9.39;63.91;100854.81;4415864;32;19992;-70
2022/04/19 05:16:10;;;;;;;;;;;;;;;9.39;63.57;100849.97;4406267;32;19965;-70
2022/04/19 05:18:36;;;;;;;;;;;;;;;9.02;64.37;100849.44;4427581;32;19945;-69
2022/04/19 05:21:02;;;;;;;;;;;;;;;9.28;63.85;100854.19;4427568;32;20048;-70
2022/04/19 05:23:27;;;;;;;;;;;;;;;9.14;63.91;100860.84;4427513;32;20300;-70
2022/04/19 05:25:53;;;;;;;;;;;;;;;9.04;64.21;100852.59;4429860;32;19965;-70
2022/04/19 05:28:18;;;;;;;;;;;;;;;9.07;64.54;100862.97;4418294;32;19972;-70
2022/04/19 05:30:44;;;;;;;;;;;;;;;9.21;64.42;100859.94;4419791;32;19954;-69
2022/04/19 05:33:11;;;;;;;;;;;;;;;9.21;64.58;100865.56;4417278;32;19984;-69
2022/04/19 05:35:38;;;;;;;;;;;;;;;9.62;63.22;100869.66;4414193;32;19987;-69
2022/04/19 05:38:03;;;;;;;;;;;;;;;9.37;64.34;100862.88;4410677;32;19993;-69
2022/04/19 05:40:29;;;;;;;;;;;;;;;9.43;64.25;100864.78;4427963;32;19953;-71
2022/04/19 05:42:54;;;;;;;;;;;;;;;9.55;64.01;100872.56;4425915;32;19989;-70
2022/04/19 05:45:20;;;;;;;;;;;;;;;9.62;63.77;100872.47;4421856;32;20001;-70
2022/04/19 05:47:46;;;;;;;;;;;;;;;9.80;63.36;100863.69;4425536;32;20377;-70
2022/04/19 05:50:11;;;;;;;;;;;;;;;9.91;63.07;100872.69;4420904;32;19961;-70
2022/04/19 05:52:37;;;;;;;;;;;;;;;9.92;62.65;100860.25;4410823;32;20397;-70
2022/04/19 05:55:03;;;;;;;;;;;;;;;10.32;61.89;100861.06;4424786;32;20009;-70
2022/04/19 05:57:28;;;;;;;;;;;;;;;10.46;61.31;100866.41;4430475;32;19958;-70
2022/04/19 05:59:56;;;;;;;;;;;;;;;10.54;60.91;100879.88;4428980;32;20256;-70
2022/04/19 06:05:07;;;;;;;;;;;;;;;10.40;60.66;100873.78;4428665;32;20292;-70
2022/04/19 06:07:41;;;;;;;;;;;;;;;10.50;60.88;100867.13;4415354;32;20006;-70
2022/04/19 06:10:07;;;;;;;;;;;;;;;10.62;60.79;100869.25;4429074;32;19968;-70
2022/04/19 06:12:33;;;;;;;;;;;;;;;10.67;59.71;100877.97;4417446;32;20375;-70
2022/04/19 06:14:58;;;;;;;;;;;;;;;10.75;59.48;100881.44;4414887;32;19988;-70
2022/04/19 06:17:29;;;;;;;;;;;;;;;10.79;59.43;100873.69;4418787;32;20336;-70
2022/04/19 06:19:55;;;;;;;;;;;;;;;10.86;59.44;100884.81;4411720;32;20273;-70
2022/04/19 06:22:21;;;;;;;;;;;;;;;10.92;59.04;100886.66;4419126;32;20017;-70
2022/04/19 06:24:46;;;;;;;;;;;;;;;10.90;59.48;100891.13;4426639;32;19965;-70
2022/04/19 06:27:13;;;;;;;;;;;;;;;10.93;59.24;100884.63;4418900;32;20345;-70
2022/04/19 06:29:38;;;;;;;;;;;;;;;10.92;58.56;100886.66;4421733;32;20497;-70
2022/04/19 06:32:04;;;;;;;;;;;;;;;11.01;58.65;100881.22;4425400;32;19946;-70
2022/04/19 06:34:30;;;;;;;;;;;;;;;10.87;58.74;100890.00;4419448;32;19953;-70
2022/04/19 06:36:55;;;;;;;;;;;;;;;10.93;58.75;100891.06;4421666;32;19980;-70
2022/04/19 06:39:20;;;;;;;;;;;;;;;11.03;58.17;100903.31;4423958;32;19945;-70
2022/04/19 06:41:46;;;;;;;;;;;;;;;11.17;58.08;100905.78;4421694;32;20001;-70
2022/04/19 06:44:12;;;;;;;;;;;;;;;11.16;58.33;100902.19;4419895;32;19969;-70
2022/04/19 06:46:38;;;;;;;;;;;;;;;10.98;58.92;100904.63;4415114;32;19956;-70
2022/04/19 06:49:07;;;;;;;;;;;;;;;11.07;59.15;100909.62;4419076;32;20015;-70
2022/04/19 06:51:32;;;;;;;;;;;;;;;11.11;58.66;100904.72;4418233;32;20350;-70
2022/04/19 06:53:58;;;;;;;;;;;;;;;11.15;58.20;100906.22;4424198;32;19972;-70
2022/04/19 06:56:24;;;;;;;;;;;;;;;11.26;58.26;100906.75;4415255;32;19991;-70
2022/04/19 06:58:50;;;;;;;;;;;;;;;11.40;58.04;100909.25;4421155;32;20007;-72
2022/04/19 07:01:16;;;;;;;;;;;;;;;11.43;57.08;100911.19;4417885;32;19963;-70
2022/04/19 07:03:42;;;;;;;;;;;;;;;11.59;57.28;100910.38;4422760;32;19953;-72
2022/04/19 07:06:07;;;;;;;;;;;;;;;11.75;55.78;100913.19;4417420;32;19953;-73
2022/04/19 07:08:33;;;;;;;;;;;;;;;11.93;55.28;100919.16;4421737;32;20367;-72
2022/04/19 07:11:03;;;;;;;;;;;;;;;12.00;54.70;100922.59;4421756;32;19957;-73
2022/04/19 07:13:31;;;;;;;;;;;;;;;12.27;54.02;100927.91;4414698;32;20299;-72
2022/04/19 07:15:58;;;;;;;;;;;;;;;12.56;52.89;100928.69;4413443;32;19965;-72
2022/04/19 07:18:24;;;;;;;;;;;;;;;12.80;51.50;100926.38;4415812;32;19982;-72
2022/04/19 07:26:52;;;;;;;;;;;;;;;13.58;48.78;100933.97;4417596;32;20287;-71
2022/04/19 07:29:10;;;;;;;;;;;;;;;13.82;48.02;100932.34;4413647;32;20728;-72
2022/04/19 07:31:39;;;;;;;;;;;;;;;14.19;47.39;100934.28;4414629;32;20242;-72
2022/04/19 07:34:05;;;;;;;;;;;;;;;14.50;45.64;100937.22;4419026;32;19966;-72
2022/04/19 07:36:41;;;;;;;;;;;;;;;14.76;45.27;100936.62;4407954;32;19961;-72
2022/04/19 07:39:08;;;;;;;;;;;;;;;14.94;44.38;100947.28;4416017;32;19980;-71
2022/04/19 07:41:34;;;;;;;;;;;;;;;15.11;43.97;100940.94;4414671;32;19996;-72
2022/04/19 07:44:01;;;;;;;;;;;;;;;15.31;42.92;100944.16;4416425;32;20042;-72
2022/04/19 07:46:28;;;;;;;;;;;;;;;15.31;43.22;100949.06;4417207;32;19967;-72
2022/04/19 07:48:54;;;;;;;;;;;;;;;15.48;42.88;100953.25;4412919;32;19981;-72
2022/04/19 07:51:20;;;;;;;;;;;;;;;15.58;42.66;100952.81;4412917;32;19968;-71
2022/04/19 07:53:46;;;;;;;;;;;;;;;15.42;42.84;100949.44;4410935;32;19971;-72
2022/04/19 07:56:12;;;;;;;;;;;;;;;15.43;42.99;100948.97;4390515;32;20377;-71
2022/04/19 07:58:37;;;;;;;;;;;;;;;15.53;42.63;100956.25;4416120;32;19982;-71
2022/04/19 08:01:03;;;;;;;;;;;;;;;15.50;42.45;100953.56;4413915;32;20020;-70
2022/04/19 08:03:30;;;;;;;;;;;;;;;15.85;41.37;100955.72;4409130;32;20273;-71
2022/04/19 08:05:56;;;;;;;;;;;;;;;15.57;41.98;100947.59;4413118;32;19958;-71
2022/04/19 08:08:22;;;;;;;;;;;;;;;15.85;41.63;100954.94;4412439;32;20102;-71
2022/04/19 08:10:48;;;;;;;;;;;;;;;15.90;41.29;100949.41;4412149;32;20107;-71
2022/04/19 08:13:14;;;;;;;;;;;;;;;15.95;41.34;100956.53;4412112;32;19980;-71
2022/04/19 08:15:39;;;;;;;;;;;;;;;16.25;40.22;100951.97;4414087;32;20004;-71
2022/04/19 08:18:05;;;;;;;;;;;;;;;16.39;39.72;100952.16;4412238;32;19942;-71
2022/04/19 08:20:30;;;;;;;;;;;;;;;16.61;39.09;100955.66;4415903;32;20351;-72
2022/04/19 08:22:56;;;;;;;;;;;;;;;16.74;38.59;100961.94;4411283;32;19964;-73
2022/04/19 08:25:22;;;;;;;;;;;;;;;16.26;39.32;100960.03;4412021;32;19969;-73
2022/04/19 08:27:47;;;;;;;;;;;;;;;16.57;39.23;100957.06;4410185;32;20307;-73
2022/04/19 08:30:15;;;;;;;;;;;;;;;16.64;38.83;100963.22;4411868;32;20085;-72
2022/04/19 08:32:40;;;;;;;;;;;;;;;16.73;38.64;100956.75;4411485;32;20131;-71
2022/04/19 08:35:06;;;;;;;;;;;;;;;16.72;38.16;100960.84;4414152;32;20490;-73
2022/04/19 08:37:34;;;;;;;;;;;;;;;16.65;38.59;100961.94;4411196;32;20540;-73
2022/04/19 08:40:00;;;;;;;;;;;;;;;16.51;38.56;100964.66;4398449;32;20199;-73
2022/04/19 08:42:29;;;;;;;;;;;;;;;16.53;38.33;100959.25;4411818;32;20241;-73
2022/04/19 08:44:55;;;;;;;;;;;;;;;16.66;38.12;100949.31;4410282;32;20424;-73
2022/04/19 08:47:22;;;;;;;;;;;;;;;16.54;38.30;100960.88;4410332;32;19946;-73
2022/04/19 08:49:48;;;;;;;;;;;;;;;16.65;38.29;100959.13;4412398;32;19953;-71
2022/04/19 08:52:14;;;;;;;;;;;;;;;16.05;38.72;100963.00;4408614;32;20025;-71
2022/04/19 08:57:33;;;;;;;;;;;;;;;16.45;38.27;100961.66;4409181;32;19945;-71
2022/04/19 09:00:00;;;;;;;;;;;;;;;16.65;38.33;100961.16;4402107;32;19965;-71
2022/04/19 09:02:27;;;;;;;;;;;;;;;16.82;37.90;100956.72;4407044;32;19964;-71
2022/04/19 09:04:53;;;;;;;;;;;;;;;17.12;37.13;100961.41;4394930;32;20254;-71
2022/04/19 09:07:20;;;;;;;;;;;;;;;17.38;36.64;100971.91;4410266;32;20387;-71
2022/04/19 09:10:01;;;;;;;;;;;;;;;17.69;35.20;100957.41;4409095;32;19989;-70
2022/04/19 09:12:27;;;;;;;;;;;;;;;17.71;34.84;100957.72;4407291;32;19950;-71
2022/04/19 09:14:55;;;;;;;;;;;;;;;18.04;33.96;100969.06;4409567;32;19961;-71
2022/04/19 09:17:28;;;;;;;;;;;;;;;18.28;33.15;100964.16;4410153;32;19954;-72
2022/04/19 09:20:06;;;;;;;;;;;;;;;18.44;33.19;100969.44;4407748;32;20586;-72
2022/04/19 09:22:33;;;;;;;;;;;;;;;18.60;33.11;100966.94;4409936;32;20028;-72
2022/04/19 09:25:12;;;;;;;;;;;;;;;18.75;32.72;100972.66;4408689;32;20575;-71
2022/04/19 09:27:38;;;;;;;;;;;;;;;18.95;31.74;100976.41;4411551;32;20312;-72
2022/04/19 09:30:23;;;;;;;;;;;;;;;19.27;30.77;100968.97;4398494;32;19980;-72
2022/04/19 09:38:15;;;;;;;;;;;;;;;20.26;29.69;100979.06;3950285;32;15723343;-72
2022/04/19 09:40:44;;;;;;;;;;;;;;;20.26;29.69;100979.06;4421720;32;19970;-72
2022/04/19 09:43:17;;;;;;;;;;;;;;;19.54;29.52;100972.25;4422445;32;20291;-72
2022/04/19 09:45:44;;;;;;;;;;;;;;;19.75;29.40;100965.31;4424878;32;20633;-72
2022/04/19 09:48:18;;;;;;;;;;;;;;;20.36;28.94;100963.34;4426981;32;20386;-72
2022/04/19 09:50:53;;;;;;;;;;;;;;;20.14;28.66;100967.97;4423400;32;19964;-72
2022/04/19 09:53:19;;;;;;;;;;;;;;;20.85;27.82;100966.00;4426587;32;20480;-72
2022/04/19 09:55:45;;;;;;;;;;;;;;;21.44;27.29;100978.53;4424835;32;19950;-72
2022/04/19 09:58:12;;;;;;;;;;;;;;;21.78;26.62;100973.09;4426075;32;20014;-72
2022/04/19 10:00:37;;;;;;;;;;;;;;;22.69;25.66;100981.12;4423371;32;19953;-72
2022/04/19 10:08:37;;;;;;;;;;;;;;;22.85;24.27;100981.19;4423226;32;20383;-72
2022/04/19 10:11:03;;;;;;;;;;;;;;;23.20;23.71;100975.00;4425636;32;19997;-72
2022/04/19 10:13:29;;;;;;;;;;;;;;;22.56;24.39;100975.09;4424882;32;19993;-72
2022/04/19 10:15:55;;;;;;;;;;;;;;;22.40;24.40;100984.41;4421378;32;19990;-72
2022/04/19 10:18:20;;;;;;;;;;;;;;;22.56;24.55;100978.75;4424049;32;20012;-72
2022/04/19 10:20:54;;;;;;;;;;;;;;;22.81;24.74;100979.87;4425223;32;19953;-72
2022/04/19 10:23:19;;;;;;;;;;;;;;;22.73;24.59;100973.09;4424977;32;20378;-72
2022/04/19 10:25:46;;;;;;;;;;;;;;;22.29;24.83;100982.25;4423299;32;19983;-72
2022/04/19 10:28:13;;;;;;;;;;;;;;;21.88;25.40;100971.59;4422432;32;19961;-72
2022/04/19 10:30:47;;;;;;;;;;;;;;;21.56;25.90;100971.63;4424053;32;20054;-72
2022/04/19 10:33:33;;;;;;;;;;;;;;;21.74;26.17;100986.84;4422244;32;20371;-72
2022/04/19 10:36:18;;;;;;;;;;;;;;;22.56;25.56;100987.38;4426179;32;20056;-72
2022/04/19 10:38:45;;;;;;;;;;;;;;;22.25;25.78;100998.12;4422109;32;19973;-72
2022/04/19 10:41:31;;;;;;;;;;;;;;;21.44;26.75;100977.75;4421112;32;20016;-72
2022/04/19 10:44:17;;;;;;;;;;;;;;;21.87;26.32;100981.50;4424936;32;19967;-72
2022/04/19 10:46:43;;;;;;;;;;;;;;;22.31;25.95;100982.53;4425486;32;20334;-71
2022/04/19 10:49:26;;;;;;;;;;;;;;;22.35;25.69;100993.75;4413077;32;20017;-72
2022/04/19 10:51:52;;;;;;;;;;;;;;;23.04;25.32;101004.47;4413853;32;20022;-73
2022/04/19 10:54:38;;;;;;;;;;;;;;;22.37;26.27;100996.91;4412879;32;19964;-73
2022/04/19 11:00:27;;;;;;;;;;;;;;;23.17;25.31;100999.78;4405497;32;20419;-72
2022/04/19 11:02:56;;;;;;;;;;;;;;;23.24;25.13;100998.53;4414857;32;19989;-71
2022/04/19 11:05:42;;;;;;;;;;;;;;;23.80;24.78;100996.44;4411971;32;20012;-71
2022/04/19 11:08:31;;;;;;;;;;;;;;;24.30;23.97;101000.78;4416826;32;19964;-74
2022/04/19 11:13:36;;;;;;;;;;;;;;;26.35;21.89;101000.16;3956592;32;15722569;-73
2022/04/19 11:21:13;;;;;;;;;;;;;;;28.27;19.93;101013.00;3950994;32;15723269;-72
2022/04/19 11:23:42;;;;;;;;;;;;;;;28.27;19.93;101013.00;4423018;32;19950;-72
2022/04/19 11:26:27;;;;;;;;;;;;;;;27.00;20.90;101012.22;4422254;32;19994;-72
2022/04/19 11:29:13;;;;;;;;;;;;;;;27.49;20.34;101016.47;4419913;32;20096;-72
2022/04/19 11:34:16;;;;;;;;;;;;;;;28.08;20.68;101018.88;3942953;32;15722439;-72
2022/04/19 11:36:42;;;;;;;;;;;;;;;28.08;20.68;101018.88;4402542;32;20072;-72
2022/04/19 11:46:43;;;;;;;;;;;;;;;27.83;20.48;101013.78;4418950;32;20349;-73
2022/04/19 11:47:50;;;;;;;;;;;;;;;27.53;20.88;101013.25;4415541;32;19995;-72
2022/04/19 11:50:31;;;;;;;;;;;;;;;27.82;20.70;101024.56;4414302;32;19996;-72
2022/04/19 11:52:58;;;;;;;;;;;;;;;28.23;20.14;101012.56;4417720;32;19968;-72
2022/04/19 11:55:25;;;;;;;;;;;;;;;28.18;20.27;101004.75;4418661;32;19951;-72
2022/04/19 11:58:07;;;;;;;;;;;;;;;28.20;20.50;101004.97;4417843;32;20072;-72
2022/04/19 12:00:33;;;;;;;;;;;;;;;27.49;20.94;101004.13;4415057;32;19979;-72
2022/04/19 12:03:02;;;;;;;;;;;;;;;27.72;20.72;101003.19;4417904;32;19993;-72
2022/04/19 12:05:29;;;;;;;;;;;;;;;26.93;21.97;101009.91;4419056;32;19977;-72
2022/04/19 12:07:55;;;;;;;;;;;;;;;26.87;21.88;101006.31;4418280;32;19992;-73
2022/04/19 12:10:21;;;;;;;;;;;;;;;26.59;22.07;101003.00;4416198;32;20455;-73
2022/04/19 12:12:48;;;;;;;;;;;;;;;26.98;21.49;101004.09;4418513;32;19964;-72
2022/04/19 12:15:34;;;;;;;;;;;;;;;27.28;21.68;101006.03;4416381;32;19953;-72
2022/04/19 12:17:59;;;;;;;;;;;;;;;27.92;21.08;101011.28;4418383;32;20757;-72
2022/04/19 12:20:26;;;;;;;;;;;;;;;28.65;20.44;101000.66;4405594;32;19972;-72
2022/04/19 12:22:51;;;;;;;;;;;;;;;29.58;19.61;100994.03;4416986;32;20502;-72
2022/04/19 12:25:21;;;;;;;;;;;;;;;29.43;19.69;100996.00;4420152;32;19981;-72
2022/04/19 12:27:50;;;;;;;;;;;;;;;29.86;19.49;101002.03;4414268;32;19961;-72
2022/04/19 12:30:16;;;;;;;;;;;;;;;29.44;19.62;100998.34;4418375;32;20592;-72
2022/04/19 12:32:58;;;;;;;;;;;;;;;29.73;19.58;100999.22;4417615;32;19950;-71
2022/04/19 12:35:25;;;;;;;;;;;;;;;30.08;19.44;101007.25;4418428;32;19945;-71
2022/04/19 12:38:08;;;;;;;;;;;;;;;29.92;19.44;100997.66;4417122;32;20416;-71
2022/04/19 12:40:34;;;;;;;;;;;;;;;29.69;19.51;100998.81;4417341;32;20376;-71
2022/04/19 12:43:00;;;;;;;;;;;;;;;29.29;19.97;100988.72;4416474;32;19992;-71
2022/04/19 12:45:31;;;;;;;;;;;;;;;28.98;20.64;100999.13;4409395;32;19953;-72
2022/04/19 12:48:00;;;;;;;;;;;;;;;29.15;20.25;100995.88;4406533;32;20599;-73
2022/04/19 12:50:27;;;;;;;;;;;;;;;29.41;20.18;100999.47;4407416;32;20007;-73
2022/04/19 12:52:53;;;;;;;;;;;;;;;29.61;20.17;100995.81;4405003;32;19987;-73
2022/04/19 12:58:19;;;;;;;;;;;;;;;30.73;19.32;100998.00;4407007;32;20090;-73
2022/04/19 13:00:44;;;;;;;;;;;;;;;30.13;19.98;101004.19;4405101;32;20289;-72
2022/04/19 13:03:10;;;;;;;;;;;;;;;29.16;20.78;101003.22;4395392;32;20174;-72
2022/04/19 13:13:51;;;;;;;;;;;;;;;27.54;22.37;101009.03;4407910;32;19989;-72
2022/04/19 13:16:18;;;;;;;;;;;;;;;27.77;22.20;101004.44;4406062;32;20036;-72
2022/04/19 13:18:43;;;;;;;;;;;;;;;27.09;22.41;101003.91;4407436;32;19984;-72
2022/04/19 13:21:09;;;;;;;;;;;;;;;27.20;22.41;101002.97;4408756;32;19999;-72
2022/04/19 13:23:34;;;;;;;;;;;;;;;27.29;22.21;100999.72;4407899;32;19985;-72
2022/04/19 13:26:00;;;;;;;;;;;;;;;27.41;22.24;101001.09;4407895;32;19973;-72
2022/04/19 13:28:26;;;;;;;;;;;;;;;27.56;22.51;101001.38;4405918;32;20008;-72
2022/04/19 13:30:52;;;;;;;;;;;;;;;27.31;22.58;100993.37;4406133;32;20233;-73
2022/04/19 13:33:18;;;;;;;;;;;;;;;27.95;21.92;100989.91;4405941;32;20004;-72
2022/04/19 13:35:43;;;;;;;;;;;;;;;27.07;22.81;100997.13;4406103;32;19969;-72
2022/04/19 13:38:24;;;;;;;;;;;;;;;27.59;22.53;100994.50;4402781;32;20603;-72
2022/04/19 13:40:51;;;;;;;;;;;;;;;28.39;21.51;100988.28;4406164;32;20046;-72
2022/04/19 13:43:17;;;;;;;;;;;;;;;28.63;21.23;100991.72;4404035;32;20001;-72
2022/04/19 13:45:43;;;;;;;;;;;;;;;29.90;20.06;100987.94;4396985;32;20033;-72